Time;durP1;ratioP1;P1;durP2;ratioP2;P2;SDS_P1;SDS_P2;PMS_P1;PMS_P2;Temp;Humidity;BMP_temperature;BMP_pressure;BME280_temperature;BME280_humidity;BME280_pressure;Samples;Min_cycle;Max_cycle;Signal;HPM_P1;HPM_P2
2023/01/29 00:01:23;;;;;;;;;;;;;;;-0.45;100.00;100439.69;5051960;28;19967;-75
2023/01/29 00:03:49;;;;;;;;;;;;;;;-0.52;100.00;100441.66;5051290;28;20229;-75
2023/01/29 00:06:15;;;;;;;;;;;;;;;-0.69;100.00;100446.53;5051649;28;20462;-74
2023/01/29 00:08:40;;;;;;;;;;;;;;;-0.98;100.00;100439.72;5050413;28;19928;-74
2023/01/29 00:11:06;;;;;;;;;;;;;;;-1.01;100.00;100438.97;5051570;28;20007;-74
2023/01/29 00:13:35;;;;;;;;;;;;;;;-1.02;100.00;100440.72;5054811;28;19924;-74
2023/01/29 00:16:00;;;;;;;;;;;;;;;-0.98;100.00;100444.06;5033288;28;19921;-74
2023/01/29 00:18:26;;;;;;;;;;;;;;;-0.91;100.00;100435.19;5051720;28;20437;-73
2023/01/29 00:20:52;;;;;;;;;;;;;;;-0.91;100.00;100440.38;5033343;28;20456;-74
2023/01/29 00:23:17;;;;;;;;;;;;;;;-1.03;100.00;100430.41;5051497;28;19921;-76
2023/01/29 00:25:43;;;;;;;;;;;;;;;-1.14;100.00;100437.66;5051123;28;20296;-74
2023/01/29 00:28:08;;;;;;;;;;;;;;;-1.12;100.00;100435.88;5051033;28;19964;-74
2023/01/29 00:30:35;;;;;;;;;;;;;;;-1.05;100.00;100432.19;5033019;28;19925;-73
2023/01/29 00:33:00;;;;;;;;;;;;;;;-0.95;100.00;100436.19;5037183;28;19928;-73
2023/01/29 00:35:26;;;;;;;;;;;;;;;-0.87;100.00;100441.97;5050878;28;19921;-74
2023/01/29 00:37:51;;;;;;;;;;;;;;;-0.82;100.00;100440.06;5032889;28;19999;-72
2023/01/29 00:40:17;;;;;;;;;;;;;;;-0.83;100.00;100443.56;5051482;28;20066;-73
2023/01/29 00:45:30;;;;;;;;;;;;;;;-0.84;100.00;100441.88;5050768;28;19921;-74
2023/01/29 00:47:55;;;;;;;;;;;;;;;-0.82;100.00;100445.25;5032765;28;19928;-74
2023/01/29 00:50:21;;;;;;;;;;;;;;;-0.82;100.00;100445.25;5029684;28;19921;-74
2023/01/29 00:52:48;;;;;;;;;;;;;;;-0.81;100.00;100457.31;5034597;28;20289;-74
2023/01/29 00:55:14;;;;;;;;;;;;;;;-0.79;100.00;100455.53;5031254;28;20341;-74
2023/01/29 00:57:39;;;;;;;;;;;;;;;-0.80;100.00;100452.97;5030016;28;20286;-73
2023/01/29 01:00:06;;;;;;;;;;;;;;;-0.87;100.00;100447.13;5030858;28;19921;-74
2023/01/29 01:05:17;;;;;;;;;;;;;;;-1.14;100.00;100463.56;5029576;28;19983;-74
2023/01/29 01:07:43;;;;;;;;;;;;;;;-1.11;100.00;100463.44;5029113;28;19951;-72
2023/01/29 01:10:32;;;;;;;;;;;;;;;-1.15;100.00;100465.31;5033285;28;19925;-73
2023/01/29 01:12:59;;;;;;;;;;;;;;;-1.45;100.00;100469.66;5022494;28;19960;-73
2023/01/29 01:15:26;;;;;;;;;;;;;;;-1.81;100.00;100470.72;5047966;28;19975;-74
2023/01/29 01:17:56;;;;;;;73.63;36.03;;;;;;;-1.90;100.00;100471.00;5027736;28;19945;-74
2023/01/29 01:20:22;;;;;;;;;;;;;;;-1.95;100.00;100475.44;5030852;28;20033;-73
2023/01/29 01:22:47;;;;;;;;;;;;;;;-1.82;100.00;100469.00;5035046;28;19975;-73
2023/01/29 01:25:14;;;;;;;;;;;;;;;-1.71;100.00;100467.00;5031837;28;20003;-74
2023/01/29 01:27:40;;;;;;;;;;;;;;;-1.63;100.00;100467.59;5030928;28;19960;-72
2023/01/29 01:30:07;;;;;;;;;;;;;;;-1.56;100.00;100465.69;5033605;28;19913;-73
2023/01/29 01:32:32;;;;;;;;;;;;;;;-1.55;100.00;100468.25;5029376;28;19928;-73
2023/01/29 01:34:58;;;;;;;;;;;;;;;-1.52;100.00;100470.72;5030347;28;20365;-73
2023/01/29 01:37:23;;;;;;;;;;;;;;;-1.47;100.00;100476.63;5030558;28;19960;-74
2023/01/29 01:39:49;;;;;;;;;;;;;;;-1.42;100.00;100464.41;5030391;28;19917;-74
2023/01/29 01:42:14;;;;;;;;;;;;;;;-1.46;100.00;100462.78;5029119;28;20021;-73
2023/01/29 01:44:54;;;;;;;;;;;;;;;-1.46;100.00;100467.97;5028463;28;19959;-73
2023/01/29 01:47:33;;;;;;;;;;;;;;;-1.50;100.00;100471.53;5021757;28;20400;-74
2023/01/29 01:50:02;;;;;;;;;;;;;;;-1.63;100.00;100483.13;5036029;28;19917;-75
2023/01/29 01:52:29;;;;;;;;;;;;;;;-1.66;100.00;100485.81;5048863;28;19917;-74
2023/01/29 01:54:55;;;;;;;;;;;;;;;-1.67;100.00;100486.72;5050209;28;19913;-73
2023/01/29 01:57:23;;;;;;;;;;;;;;;-1.65;100.00;100478.00;5032083;28;19916;-75
2023/01/29 01:59:52;;;;;;;;;;;;;;;-1.63;100.00;100480.56;5029029;28;20448;-75
2023/01/29 02:10:36;;;;;;;;;;;;;;;-1.51;100.00;100485.38;5047987;28;20266;-74
2023/01/29 02:13:03;;;;;;;;;;;;;;;-1.64;100.00;100502.13;5053465;28;19916;-73
2023/01/29 02:15:28;;;;;;;;;;;;;;;-1.81;100.00;100499.19;5033594;28;19923;-75
2023/01/29 02:17:53;;;;;;;;;;;;;;;-1.82;100.00;100500.06;5049322;28;19921;-72
2023/01/29 02:20:25;;;;;;;;;;;;;;;-1.76;100.00;100490.41;5031775;28;19916;-74
2023/01/29 02:23:14;;;;;;;;;;;;;;;-1.69;100.00;100504.00;5048223;28;20393;-74
2023/01/29 02:25:59;;;;;;;;;;;;;;;-1.68;100.00;100505.72;5052210;28;19917;-73
2023/01/29 02:28:29;;;;;;;;;;;;;;;-1.71;100.00;100509.22;5049010;28;19920;-73
2023/01/29 02:30:54;;;;;;;;;;;;;;;-1.71;100.00;100508.41;5057591;28;19921;-73
2023/01/29 02:33:23;;;;;;;;;;;;;;;-1.78;100.00;100507.72;5053844;28;19923;-74
2023/01/29 02:35:49;;;;;;;;;;;;;;;-1.88;100.00;100501.09;5048563;28;19916;-73
2023/01/29 02:38:14;;;;;;;;;;;;;;;-1.90;100.00;100496.84;5035733;28;20007;-74
2023/01/29 02:40:40;;;;;;;;;;;;;;;-1.86;100.00;100501.03;5053002;28;19923;-74
2023/01/29 02:43:24;;;;;;;;;;;;;;;-1.79;100.00;100500.84;5053773;28;19917;-73
2023/01/29 02:45:54;;;;;;;;;;;;;;;-1.78;100.00;100509.47;5050753;28;19974;-74
2023/01/29 02:48:22;;;;;;;;;;;;;;;-2.11;100.00;100506.03;5050262;28;19923;-72
2023/01/29 02:51:04;;;;;;;;;;;;;;;-2.09;100.00;100505.09;5056730;28;19920;-74
2023/01/29 02:53:56;;;;;;;;;;;;;;;-2.03;100.00;100504.09;5049167;28;19996;-74
2023/01/29 02:56:26;;;;;;;;;;;;;;;-1.98;100.00;100514.31;5048380;28;19916;-72
2023/01/29 02:58:58;;;;;;;;;;;;;;;-2.03;100.00;100516.19;5051504;28;19924;-73
2023/01/29 03:01:51;;;;;;;70.22;34.88;;;;;;;-2.16;100.00;100521.66;5031240;28;19917;-74
2023/01/29 03:04:28;;;;;;;67.20;35.15;;;;;;;-2.15;100.00;100518.19;5044359;28;20461;-74
2023/01/29 03:10:16;;;;;;;67.90;34.47;;;;;;;-2.08;100.00;100524.91;5032478;28;20485;-74
2023/01/29 03:12:44;;;;;;;66.63;34.58;;;;;;;-2.00;100.00;100526.47;5033958;28;20049;-74
2023/01/29 03:15:17;;;;;;;;;;;;;;;-2.09;100.00;100528.38;5034714;28;20116;-74
2023/01/29 03:18:11;;;;;;;;;;;;;;;-2.23;100.00;100529.63;5049016;28;19931;-73
2023/01/29 03:20:46;;;;;;;;;;;;;;;-2.38;100.00;100540.34;5051803;28;19916;-72
2023/01/29 03:23:15;;;;;;;;;;;;;;;-2.50;100.00;100546.66;5034381;28;20292;-74
2023/01/29 03:34:27;;;;;;;;;;;;;;;-2.62;100.00;100550.41;5047676;28;19923;-73
2023/01/29 03:36:54;;;;;;;;;;;;;;;-2.54;100.00;100545.06;5048487;28;20007;-75
2023/01/29 03:39:20;;;;;;;;;;;;;;;-2.55;100.00;100549.38;5034101;28;19916;-75
2023/01/29 03:41:46;;;;;;;;;;;;;;;-2.46;100.00;100550.88;5051734;28;19917;-73
2023/01/29 03:44:27;;;;;;;;;;;;;;;-2.40;100.00;100545.53;5033973;28;19959;-73
2023/01/29 03:46:56;;;;;;;;;;;;;;;-2.31;100.00;100547.06;5051202;28;19924;-72
2023/01/29 03:49:21;;;;;;;;;;;;;;;-2.30;100.00;100544.47;5046499;28;19924;-74
2023/01/29 03:52:01;;;;;;;;;;;;;;;-2.32;100.00;100541.06;5033518;28;20376;-73
2023/01/29 03:54:50;;;;;;;;;;;;;;;-2.27;100.00;100539.19;5047397;28;19973;-73
2023/01/29 03:57:21;;;;;;;;;;;;;;;-2.28;100.00;100542.66;5041528;28;19916;-73
2023/01/29 04:00:07;;;;;;;;;;;;;;;-2.30;100.00;100549.63;5033476;28;20330;-74
2023/01/29 04:03:02;;;;;;;;;;;;;;;-2.31;100.00;100547.06;5030785;28;20006;-74
2023/01/29 04:05:33;;;;;;;;;;;;;;;-2.31;100.00;100545.34;5036924;28;19916;-73
2023/01/29 04:08:15;;;;;;;;;;;;;;;-2.31;100.00;100547.06;5035041;28;19917;-73
2023/01/29 04:10:43;;;;;;;;;;;;;;;-2.46;100.00;100537.94;5033159;28;19917;-73
2023/01/29 04:13:11;;;;;;;;;;;;;;;-2.43;100.00;100539.63;5033442;28;19924;-73
2023/01/29 04:15:42;;;;;;;;;;;;;;;-2.50;100.00;100544.09;5034765;28;19916;-74
2023/01/29 04:18:08;;;;;;;;;;;;;;;-2.50;100.00;100541.50;5052136;28;19917;-76
2023/01/29 04:21:00;;;;;;;;;;;;;;;-2.45;100.00;100543.97;5047689;28;20380;-73
2023/01/29 04:23:26;;;;;;;;;;;;;;;-2.51;100.00;100539.78;5051148;28;19916;-75
2023/01/29 04:26:05;;;;;;;;;;;;;;;-2.49;100.00;100550.97;5031113;28;20261;-74
2023/01/29 04:28:45;;;;;;;;;;;;;;;-2.53;100.00;100550.16;5030587;28;19923;-73
2023/01/29 04:31:12;;;;;;;;;;;;;;;-2.53;100.00;100551.91;5033029;28;20376;-73
2023/01/29 04:33:53;;;;;;;;;;;;;;;-2.62;100.00;100555.56;5050739;28;19920;-72
2023/01/29 04:36:18;;;;;;;;;;;;;;;-2.64;100.00;100553.88;5033015;28;19917;-73
2023/01/29 04:38:44;;;;;;;;;;;;;;;-2.70;100.00;100548.88;5032871;28;19916;-73
2023/01/29 04:41:10;;;;;;;;;;;;;;;-2.74;100.00;100558.44;5050791;28;19917;-74
2023/01/29 04:43:46;;;;;;;;;;;;;;;-2.81;100.00;100553.44;5054656;28;19916;-72
2023/01/29 04:46:18;;;;;;;;;;;;;;;-2.79;100.00;100547.34;5049039;28;20061;-73
2023/01/29 04:48:49;;;;;;;;;;;;;;;-2.78;100.00;100548.22;5032719;28;19971;-74
2023/01/29 04:51:38;;;;;;;;;;;;;;;-2.79;100.00;100551.66;5050966;28;19970;-73
2023/01/29 04:54:11;;;;;;;;;;;;;;;-2.81;100.00;100553.44;5048974;28;19958;-75
2023/01/29 04:56:55;;;;;;;;;;;;;;;-2.76;100.00;100554.16;5050205;28;19950;-74
2023/01/29 04:59:25;;;;;;;;;;;;;;;-2.70;100.00;100554.03;5049387;28;19917;-75
2023/01/29 05:01:51;;;;;;;;;;;;;;;-2.65;100.00;100547.03;5046303;28;19928;-75
2023/01/29 05:04:19;;;;;;;;;;;;;;;-2.65;100.00;100557.38;5054504;28;19916;-73
2023/01/29 05:06:46;;;;;;;;;;;;;;;-2.70;100.00;100556.59;5049856;28;19960;-73
2023/01/29 05:09:13;;;;;;;;;;;;;;;-2.69;100.00;100551.41;5050014;28;19927;-74
2023/01/29 05:11:39;;;;;;;;;;;;;;;-2.69;100.00;100555.72;5049888;28;20250;-73
2023/01/29 05:14:07;;;;;;;;;;;;;;;-2.70;100.00;100557.47;5050433;28;19917;-75
2023/01/29 05:16:42;;;;;;;;;;;;;;;-2.63;100.00;100560.75;5049949;28;19921;-74
2023/01/29 05:19:09;;;;;;;;;;;;;;;-2.65;100.00;100567.72;5032429;28;19956;-75
2023/01/29 05:21:34;;;;;;;;;;;;;;;-2.66;100.00;100566.00;5051489;28;20376;-75
2023/01/29 05:24:10;;;;;;;;;;;;;;;-2.60;100.00;100565.88;5050410;28;19924;-75
2023/01/29 05:29:19;;;;;;;;;;;;;;;-2.57;100.00;100570.94;5046260;28;19924;-74
2023/01/29 05:31:45;;;;;;;;;;;;;;;-2.52;100.00;100574.28;5050016;28;20261;-74
2023/01/29 05:34:10;;;;;;;;;;;;;;;-2.52;100.00;100569.94;5049952;28;19916;-75
2023/01/29 05:36:36;;;;;;;;;;;;;;;-2.49;100.00;100579.38;5050192;28;19987;-74
2023/01/29 05:39:01;;;;;;;;;;;;;;;-2.46;100.00;100579.28;5050319;28;19916;-73
2023/01/29 05:41:27;;;;;;;;;;;;;;;-2.42;100.00;100577.50;5036219;28;19916;-73
2023/01/29 05:43:52;;;;;;;;;;;;;;;-2.42;100.00;100580.94;5049399;28;19978;-74
2023/01/29 05:46:18;;;;;;;;;;;;;;;-2.42;100.00;100578.34;5049867;28;20024;-73
2023/01/29 05:48:43;;;;;;;;;;;;;;;-2.40;100.00;100589.50;5049382;28;19968;-74
2023/01/29 05:51:09;;;;;;;;;;;;;;;-2.41;100.00;100590.38;5049894;28;19924;-73
2023/01/29 05:53:34;;;;;;;;;;;;;;;-2.43;100.00;100594.75;5049590;28;19917;-73
2023/01/29 05:56:01;;;;;;;;;;;;;;;-2.54;100.00;100589.84;5049914;28;19921;-74
2023/01/29 05:58:26;;;;;;;;;;;;;;;-2.55;100.00;100595.03;5035535;28;19917;-76
2023/01/29 06:00:52;;;;;;;;;;;;;;;-2.53;100.00;100598.41;5057844;28;19978;-74
2023/01/29 06:03:17;;;;;;;;;;;;;;;-2.50;100.00;100593.19;5053896;28;19942;-73
2023/01/29 06:05:43;;;;;;;;;;;;;;;-2.49;100.00;100595.75;5036409;28;21338;-74
2023/01/29 06:08:08;;;;;;;;;;;;;;;-2.46;100.00;100605.13;5053891;28;19916;-74
2023/01/29 06:10:34;;;;;;;;;;;;;;;-2.45;100.00;100612.00;5053534;28;20066;-73
2023/01/29 06:12:59;;;;;;;;;;;;;;;-2.45;100.00;100606.00;5035899;28;20007;-74
2023/01/29 06:15:25;;;;;;;;;;;;;;;-2.51;100.00;100607.00;5053706;28;20401;-74
2023/01/29 06:17:53;;;;;;;;;;;;;;;-2.53;100.00;100603.56;5053365;28;19916;-73
2023/01/29 06:20:19;;;;;;;;;;;;;;;-2.54;100.00;100613.09;5057467;28;19917;-73
2023/01/29 06:22:44;;;;;;;;;;;;;;;-2.55;100.00;100615.69;5052824;28;19917;-74
2023/01/29 06:25:10;;;;;;;;;;;;;;;-2.63;100.00;100621.03;5053457;28;19999;-74
2023/01/29 06:27:35;;;;;;;;;;;;;;;-2.65;100.00;100619.38;5053081;28;19995;-74
2023/01/29 06:30:02;;;;;;;;;;;;;;;-2.60;100.00;100633.06;5053294;28;20269;-75
2023/01/29 06:32:27;;;;;;;;;;;;;;;-2.65;100.00;100624.56;5052921;28;19985;-74
2023/01/29 06:34:53;;;;;;;;;;;;;;;-2.65;100.00;100634.91;5052891;28;19920;-73
2023/01/29 06:37:18;;;;;;;;;;;;;;;-2.70;100.00;100636.69;5056140;28;19912;-73
2023/01/29 06:39:43;;;;;;;;;;;;;;;-2.79;100.00;100631.75;5052903;28;19925;-74
2023/01/29 06:42:10;;;;;;;;;;;;;;;-2.81;100.00;100633.50;5053062;28;19939;-73
2023/01/29 06:44:35;;;;;;;;;;;;;;;-2.80;100.00;100641.22;5052518;28;19935;-74
2023/01/29 06:47:00;;;;;;;;;;;;;;;-2.88;100.00;100638.78;5052756;28;20408;-73
2023/01/29 06:49:26;;;;;;;;;;;;;;;-2.85;100.00;100639.63;5052700;28;20239;-73
2023/01/29 06:51:51;;;;;;;;;;;;;;;-2.93;100.00;100650.09;5052546;28;19951;-73
2023/01/29 06:54:16;;;;;;;;;;;;;;;-2.99;100.00;100651.09;5053008;28;19952;-74
2023/01/29 06:56:43;;;;;;;;;;;;;;;-3.04;100.00;100655.50;5038967;28;20394;-74
2023/01/29 06:59:09;;;;;;;;;;;;;;;-3.08;100.00;100651.28;5052570;28;19921;-73
2023/01/29 07:01:39;;;;;;;;;;;;;;;-3.11;100.00;100655.66;5052366;28;19984;-73
2023/01/29 07:04:05;;;;;;;;;;;;;;;-3.12;100.00;100670.28;5052904;28;19924;-73
2023/01/29 07:06:30;;;;;;;;;;;;;;;-3.11;100.00;100669.41;5052344;28;19939;-73
2023/01/29 07:08:56;;;;;;;;;;;;;;;-3.08;100.00;100666.78;5051555;28;20009;-73
2023/01/29 07:11:21;;;;;;;;;;;;;;;-3.08;100.00;100677.09;5052437;28;19924;-73
2023/01/29 07:13:47;;;;;;;;;;;;;;;-3.04;100.00;100681.31;5052359;28;20605;-73
2023/01/29 07:16:12;;;;;;;;;;;;;;;-2.99;100.00;100682.06;5038732;28;19927;-76
2023/01/29 07:18:37;;;;;;;;;;;;;;;-2.97;100.00;100685.50;5052045;28;19920;-72
2023/01/29 07:21:05;;;;;;;;;;;;;;;-2.90;100.00;100686.22;5034257;28;19916;-74
2023/01/29 07:23:30;;;;;;;;;;;;;;;-2.84;100.00;100686.09;5034160;28;19924;-73
2023/01/29 07:25:58;;;;;;;;;;;;;;;-2.78;100.00;100685.13;5052541;28;19916;-73
2023/01/29 07:28:24;;;;;;;;;;;;;;;-2.76;100.00;100685.91;5049194;28;19916;-73
2023/01/29 07:30:54;;;;;;;;;;;;;;;-2.70;100.00;100694.38;5052009;28;19928;-74
2023/01/29 07:33:19;;;;;;;;;;;;;;;-2.71;100.00;100697.03;5048299;28;19923;-74
2023/01/29 07:35:44;;;;;;;;;;;;;;;-2.64;100.00;100698.56;5053087;28;19916;-74
2023/01/29 07:38:10;;;;;;;;;;;;;;;-2.60;100.00;100706.25;5034251;28;19924;-73
2023/01/29 07:40:35;;;;;;;;;;;;;;;-2.54;100.00;100706.13;5051464;28;19923;-73
2023/01/29 07:43:04;;;;;;;65.65;31.65;;;;;;;-2.52;100.00;100706.06;5051892;28;19971;-73
2023/01/29 07:45:33;;;;;;;64.85;32.40;;;;;;;-2.51;100.00;100707.78;5033378;28;20520;-75
2023/01/29 07:47:59;;;;;;;62.17;33.05;;;;;;;-2.56;100.00;100704.44;5051287;28;20025;-74
2023/01/29 07:50:26;;;;;;;63.72;32.33;;;;;;;-2.55;100.00;100719.94;5033111;28;20041;-74
2023/01/29 07:52:53;;;;;;;65.22;33.15;;;;;;;-2.50;100.00;100714.66;5051109;28;20025;-73
2023/01/29 07:55:19;;;;;;;67.47;34.40;;;;;;;-2.45;100.00;100709.38;5055439;28;20055;-74
2023/01/29 07:57:45;;;;;;;62.55;32.30;;;;;;;-2.41;100.00;100719.59;5051036;28;20536;-73
2023/01/29 08:00:11;;;;;;;;;;;;;;;-2.37;100.00;100713.50;5051533;28;19955;-74
2023/01/29 08:02:40;;;;;;;;;;;;;;;-2.30;100.00;100715.09;5051538;28;19921;-73
2023/01/29 08:05:06;;;;;;;;;;;;;;;-2.25;100.00;100713.25;5051602;28;19917;-74
2023/01/29 08:07:31;;;;;;;;;;;;;;;-2.25;100.00;100708.06;5051300;28;19923;-73
2023/01/29 08:09:57;;;;;;;;;;;;;;;-2.20;100.00;100716.56;5051237;28;19935;-73
2023/01/29 08:12:22;;;;;;;;;;;;;;;-2.30;100.00;100720.25;5055496;28;20300;-74
2023/01/29 08:14:49;;;;;;;;;;;;;;;-2.32;100.00;100732.34;5051185;28;19921;-75
2023/01/29 08:17:14;;;;;;;;;;;;;;;-2.25;100.00;100735.66;5051463;28;19925;-72
2023/01/29 08:19:39;;;;;;;;;;;;;;;-2.16;100.00;100738.03;5050034;28;19923;-74
2023/01/29 08:22:05;;;;;;;;;;;;;;;-2.09;100.00;100740.44;5051097;28;19921;-74
2023/01/29 08:24:30;;;;;;;;;;;;;;;-2.11;100.00;100752.53;5050774;28;20289;-74
2023/01/29 08:26:56;;;;;;;;;;;;;;;-2.01;100.00;100760.13;5051131;28;19917;-74
2023/01/29 08:29:22;;;;;;;;;;;;;;;-1.95;100.00;100762.56;5051175;28;20011;-74
2023/01/29 08:31:47;;;;;;;;;;;;;;;-1.89;100.00;100752.06;5054833;28;20549;-72
2023/01/29 08:34:12;;;;;;;;;;;;;;;-1.79;100.00;100764.75;5050806;28;20343;-74
2023/01/29 08:36:38;;;;;;;;;;;;;;;-1.71;100.00;100762.81;5050286;28;19916;-74
2023/01/29 08:39:03;;;;;;;;;;;;;;;-1.61;100.00;100765.22;5050879;28;19913;-73
2023/01/29 08:41:29;;;;;;;;;;;;;;;-1.52;100.00;100768.41;5050734;28;19924;-75
2023/01/29 08:43:54;;;;;;;;;;;;;;;-1.46;100.00;100765.66;5050566;28;19956;-74
2023/01/29 08:46:19;;;;;;;;;;;;;;;-1.37;100.00;100768.03;5050859;28;19947;-74
2023/01/29 08:48:45;;;;;;;71.05;35.83;;;;;;;-1.30;100.00;100769.59;5050129;28;19999;-74
2023/01/29 08:51:11;;;;;;;69.45;35.90;;;;;;;-1.24;100.00;100766.00;5051975;28;20053;-74
2023/01/29 08:53:37;;;;;;;73.03;34.80;;;;;;;-1.18;100.00;100767.59;5049303;28;20048;-73
2023/01/29 08:56:02;;;;;;;63.20;33.70;;;;;;;-1.10;100.00;100757.84;5048862;28;20040;-72
2023/01/29 08:58:28;;;;;;;65.72;33.38;;;;;;;-1.02;100.00;100768.88;5049892;28;20031;-74
2023/01/29 09:00:53;;;;;;;68.97;35.35;;;;;;;-0.93;100.00;100771.19;5049651;28;20104;-74
2023/01/29 09:03:19;;;;;;;64.03;34.20;;;;;;;-0.90;100.00;100778.91;5046184;28;20025;-74
2023/01/29 09:05:45;;;;;;;65.68;33.53;;;;;;;-0.81;100.00;100783.84;5048815;28;20055;-75
2023/01/29 09:08:11;;;;;;;60.92;32.90;;;;;;;-0.70;100.00;100792.16;5031500;28;20037;-75
2023/01/29 09:10:37;;;;;;;58.92;31.52;;;;;;;-0.63;100.00;100793.69;5048896;28;20036;-74
2023/01/29 09:13:03;;;;;;;61.22;32.00;;;;;;;-0.59;100.00;100803.09;5049425;28;20032;-73
2023/01/29 09:15:28;;;;;;;59.97;30.48;;;;;;;-0.50;100.00;100808.03;5045777;28;20041;-74
2023/01/29 09:17:54;;;;;;;55.50;30.80;;;;;;;-0.38;100.00;100803.38;5048931;28;20107;-74
2023/01/29 09:20:19;;;;;;;;;;;;;;;-0.28;100.00;100799.63;5049719;28;19921;-74
2023/01/29 09:22:45;;;;;;;;;;;;;;;-0.18;100.00;100803.69;5049276;28;19960;-74
2023/01/29 09:25:11;;;;;;;;;;;;;;;-0.09;100.00;100811.16;5032152;28;19985;-74
2023/01/29 09:27:36;;;;;;;;;;;;;;;-0.01;100.00;100804.03;5049570;28;19920;-74
2023/01/29 09:30:03;;;;;;;;;;;;;;;0.06;100.00;100807.28;5054058;28;19925;-74
2023/01/29 09:32:31;;;;;;;;;;;;;;;0.15;100.00;100804.41;5047357;28;19921;-73
2023/01/29 09:34:57;;;;;;;;;;;;;;;0.18;100.00;100801.69;5032377;28;19924;-74
2023/01/29 09:37:22;;;;;;;;;;;;;;;0.21;100.00;100796.41;5046510;28;20364;-74
2023/01/29 09:39:48;;;;;;;;;;;;;;;0.29;100.00;100808.28;5053726;28;19924;-73
2023/01/29 09:42:13;;;;;;;;;;;;;;;0.36;100.00;100789.00;5051288;28;19947;-73
2023/01/29 09:44:42;;;;;;;;;;;;;;;0.38;100.00;100796.75;5053852;28;19920;-73
2023/01/29 09:47:11;;;;;;;;;;;;;;;0.45;100.00;100787.00;5048569;28;20377;-71
2023/01/29 09:49:40;;;;;;;;;;;;;;;0.52;100.00;100788.53;5045935;28;20385;-73
2023/01/29 09:52:09;;;;;;;;;;;;;;;0.60;100.00;100791.69;5047920;28;19952;-72
2023/01/29 09:54:44;;;;;;;;;;;;;;;0.67;100.00;100790.59;5040185;28;19917;-72
2023/01/29 09:57:14;;;;;;;;;;;;;;;0.74;100.00;100797.31;5041547;28;20277;-74
2023/01/29 09:59:40;;;;;;;;;;;;;;;0.79;100.00;100803.19;5053440;28;20016;-74
2023/01/29 10:02:09;;;;;;;;;;;;;;;0.86;100.00;100799.50;5049739;28;20024;-76
2023/01/29 10:04:51;;;;;;;;;;;;;;;0.90;100.00;100795.88;5048422;28;20261;-71
2023/01/29 10:07:16;;;;;;;;;;;;;;;0.96;100.00;100787.88;5053647;28;19925;-74
2023/01/29 10:10:01;;;;;;;;;;;;;;;1.03;100.00;100796.31;5051249;28;19932;-74
2023/01/29 10:12:38;;;;;;;;;;;;;;;1.07;100.00;100793.56;5050312;28;19986;-73
2023/01/29 10:15:10;;;;;;;;;;;;;;;1.15;100.00;100791.53;5034579;28;19967;-74
2023/01/29 10:17:55;;;;;;;;;;;;;;;1.22;100.00;100787.84;5049456;28;19936;-74
2023/01/29 10:20:33;;;;;;;;;;;;;;;1.33;100.00;100789.19;5052353;28;19960;-75
2023/01/29 10:23:06;;;;;;;;;;;;;;;1.40;100.00;100785.47;5053056;28;19927;-75
2023/01/29 10:25:35;;;;;;;;;;;;;;;1.46;100.00;100785.25;5051455;28;20007;-74
2023/01/29 10:28:01;;;;;;;;;;;;;;;1.53;100.00;100782.34;5049253;28;20007;-73
2023/01/29 10:30:27;;;;;;;;;;;;;;;1.61;100.00;100771.69;5033904;28;20074;-74
2023/01/29 10:32:53;;;;;;;;;;;;;;;1.67;100.00;100776.66;5049182;28;19928;-73
2023/01/29 10:35:23;;;;;;;;;;;;;;;1.75;100.00;100773.78;5051643;28;19940;-73
2023/01/29 10:37:51;;;;;;;;;;;;;;;1.82;100.00;100770.91;5051543;28;19927;-73
2023/01/29 10:40:21;;;;;;;;;;;;;;;1.90;100.00;100762.78;5034244;28;19948;-73
2023/01/29 10:42:59;;;;;;;;;;;;;;;1.95;100.00;100764.28;5052057;28;19927;-74
2023/01/29 10:45:31;;;;;;;;;;;;;;;1.99;100.00;100750.28;5055698;28;19927;-74
2023/01/29 10:48:06;;;;;;;;;;;;;;;2.04;100.00;100753.53;5049209;28;19928;-73
2023/01/29 10:50:41;;;;;;;;;;;;;;;2.12;100.00;100747.19;5048900;28;19921;-73
2023/01/29 10:53:06;;;;;;;;;;;;;;;2.20;100.00;100742.50;5052973;28;19965;-74
2023/01/29 10:55:55;;;;;;;;;;;;;;;2.26;100.00;100740.50;5051880;28;19998;-74
2023/01/29 10:58:35;;;;;;;;;;;;;;;2.34;100.00;100745.41;5052324;28;19932;-73
2023/01/29 11:01:01;;;;;;;;;;;;;;;2.40;100.00;100742.56;5041439;28;19921;-74
2023/01/29 11:03:28;;;;;;;;;;;;;;;2.47;100.00;100741.41;5041204;28;19920;-73
2023/01/29 11:05:56;;;;;;;;;;;;;;;2.54;100.00;100740.22;5038387;28;19933;-73
2023/01/29 11:08:28;;;;;;;;;;;;;;;2.59;100.00;100725.28;5038579;28;20338;-74
2023/01/29 11:11:06;;;;;;;;;;;;;;;2.66;100.00;100723.22;5036905;28;19971;-76
2023/01/29 11:13:34;;;;;;;;;;;;;;;2.74;100.00;100727.22;5037564;28;20369;-72
2023/01/29 11:16:00;;;;;;;;;;;;;;;2.81;100.00;100715.63;5037522;28;19921;-76
2023/01/29 11:18:25;;;;;;;;;;;;;;;2.88;100.00;100711.00;5038768;28;19940;-77
2023/01/29 11:21:03;;;;;;;;;;;;;;;2.97;100.00;100704.53;5042488;28;19932;-74
2023/01/29 11:23:30;;;;;;;;;;;;;;;3.05;100.00;100698.06;5045570;28;19925;-76
2023/01/29 11:25:57;;;;;;;;;;;;;;;3.12;100.00;100689.03;5038708;28;19980;-75
2023/01/29 11:28:40;;;;;;;;;;;;;;;3.20;100.00;100688.69;5040150;28;19920;-76
2023/01/29 11:31:16;;;;;;;;;;;;;;;3.29;100.00;100685.69;5038112;28;19921;-76
2023/01/29 11:33:42;;;;;;;;;;;;;;;3.35;100.00;100680.22;5037382;28;20011;-74
2023/01/29 11:36:35;;;;;;;;;;;;;;;3.42;100.00;100676.38;5021044;28;19921;-76
2023/01/29 11:39:09;;;;;;;;;;;;;;;3.50;100.00;100663.84;5035557;28;19967;-76
2023/01/29 11:42:02;;;;;;;;;;;;;;;3.57;100.00;100665.25;5040695;28;19925;-75
2023/01/29 11:44:27;;;;;;;;;;;;;;;3.67;100.00;100653.44;5035010;28;20428;-78
2023/01/29 11:46:53;;;;;;;;;;;;;;;3.75;100.00;100647.88;5036254;28;19929;-77
2023/01/29 11:49:37;;;;;;;;;;;;;;;3.82;100.00;100645.81;5036749;28;19932;-76
2023/01/29 11:52:04;;;;;;;;;;;;;;;3.90;100.00;100641.06;5035369;28;19929;-79
2023/01/29 11:54:33;;;;;;;;;;;;;;;4.00;100.00;100631.88;5038173;28;19931;-75
2023/01/29 11:56:58;;;;;;;;;;;;;;;4.09;100.00;100624.41;5043632;28;19978;-77
2023/01/29 11:59:33;;;;;;;;;;;;;;;4.23;100.00;100617.66;5046283;28;19944;-77
2023/01/29 12:02:13;;;;;;;;;;;;;;;4.37;100.00;100608.19;4688136;28;10000079;-76
2023/01/29 12:04:39;;;;;;;;;;;;;;;4.47;100.00;100600.75;5048164;28;19920;-76
2023/01/29 12:07:10;;;;;;;;;;;;;;;4.57;100.00;100595.88;5053312;28;19921;-78
2023/01/29 12:09:38;;;;;;;;;;;;;;;4.63;100.00;100591.19;5048125;28;20015;-76
2023/01/29 12:12:16;;;;;;;;;;;;;;;4.72;100.00;100589.84;5049336;28;19929;-78
2023/01/29 12:14:42;;;;;;;;;;;;;;;4.80;100.00;100579.84;5047688;28;19925;-74
2023/01/29 12:17:18;;;;;;;;;;;;;;;4.87;100.00;100574.19;5048652;28;19948;-73
2023/01/29 12:19:49;;;;;;;;;;;;;;;4.97;100.00;100576.31;5047985;28;19928;-74
2023/01/29 12:22:26;;;;;;;;;;;;;;;5.05;100.00;100576.75;5030773;28;19924;-74
2023/01/29 12:24:56;;;;;;;;;;;;;;;5.13;100.00;100570.16;5033798;28;19920;-76
2023/01/29 12:27:35;;;;;;;;;;;;;;;5.21;100.00;100567.13;5042648;28;19932;-73
2023/01/29 12:30:15;;;;;;;;;;;;;;;5.28;100.00;100566.72;5048215;28;20002;-73
2023/01/29 12:32:48;;;;;;;;;;;;;;;5.34;100.00;100558.53;5047910;28;19921;-74
2023/01/29 12:35:15;;;;;;;;;;;;;;;5.48;100.00;100559.53;5048426;28;19924;-73
2023/01/29 12:37:59;;;;;;;;;;;;;;;5.57;100.00;100559.00;5047761;28;20389;-73
2023/01/29 12:40:27;;;;;;;;;;;;;;;5.57;95.48;100551.16;5044110;28;19925;-72
2023/01/29 12:42:56;;;;;;;;;;;;;;;5.66;97.35;100548.84;5040180;28;19928;-73
2023/01/29 12:45:23;;;;;;;;;;;;;;;5.74;97.41;100551.03;5049062;28;19952;-74
2023/01/29 12:47:58;;;;;;;;;;;;;;;5.82;96.84;100554.06;5046852;28;20384;-74
2023/01/29 12:50:33;;;;;;;;;;;;;;;5.91;96.84;100540.47;5030383;28;19925;-74
2023/01/29 12:53:05;;;;;;;;;;;;;;;6.01;95.49;100538.13;5040983;28;19956;-74
2023/01/29 12:55:36;;;;;;;;;;;;;;;6.05;93.77;100530.03;5042964;28;19955;-74
2023/01/29 12:58:23;;;;;;;;;;;;;;;6.13;94.81;100533.00;5040235;28;19925;-75
2023/01/29 13:00:51;;;;;;;;;;;;;;;6.20;92.19;100527.41;4695500;28;10000042;-74